avis per tempestes more information blitzortung!


avis per Pluja more information rain snow radar


Visita la nostra xarxa de llocs de meteo:

Template documentation
and downloads

And another site



Thunderstorms From: 18-09-2018 20:00 Until: 19-09-2018 10:59 warning for: Thunderstorms Level: Yellow info button
Rain From: 18-09-2018 20:00 Until: 19-09-2018 10:59 warning for: Rain Level: Yellow info button

Pagina Historial Weather Underground text

Diari Resum Juny 14, 2017 Unitats:  Tant    Imperial   Mètric
« Previous Dia
SegĂźent Dia »
Diari Setmana Mensual Anual Personalitzada
  Maxima: Minima: Media:
Temperatura: TemperatureC °F /  -17.8 °C 19.0 °F /  -7.2 °C 29.2 °F /  -1.6 °C
Punt de rosada: DewpointC °F /  -17.8 °C 5.1 °F /  -14.9 °C 9.3 °F /  -12.6 °C
Humitat: Humidity % 22 % 30 %
Wind Speed: WindSpeedKMH mph /  0 km/h - 8.3 mph /  13.4 km/h
RĂ fegues de vent: WindSpeedGustKMH mph /  0 km/h - -
Vent:- - SSW
Pression baro: PressurehPa in /  0 hPa 1009.0 in /  34164.7 hPa -
Precipitacions: 0.0 in /  0 mm    
Historical Graphs
 
 
Dades de taula per Juny 14, 2017
Temps Temperatura Punt de rosada Pression baro Vent Wind Speed RĂ fegues de vent Humitat Rainfall Rate (Hourly)
TemperatureC °F /  -17.8 °C DewpointC °F /  -17.8 °C PressurehPa in /  0 hPa Calm     Humidity % HourlyPrecipMM in /  0 mm
00:02 24.1 °F /  -4.4 °C 10.7 °F /  -11.8 °C 1011.7 in /  34256.2 hPa SW 1.9 mph /  3.1 km/h 2.3 mph /  3.7 km/h 43 % 0.0 in /  0 mm
01:45 19.0 °F /  -7.2 °C 10.6 °F /  -11.9 °C 1013.8 in /  34327.3 hPa SW 1.6 mph /  2.6 km/h 1.6 mph /  2.6 km/h 58 % 0.0 in /  0 mm
01:55 19.1 °F /  -7.2 °C 10.7 °F /  -11.8 °C 1013.8 in /  34327.3 hPa Calm   1.6 mph /  2.6 km/h 58 % 0.0 in /  0 mm
02:05 19.8 °F /  -6.8 °C 11.3 °F /  -11.5 °C 1013.8 in /  34327.3 hPa SW 1.6 mph /  2.6 km/h 1.6 mph /  2.6 km/h 58 % 0.0 in /  0 mm
02:15 20.0 °F /  -6.7 °C 10.9 °F /  -11.7 °C 1013.8 in /  34327.3 hPa Calm   3.2 mph /  5.1 km/h 56 % 0.0 in /  0 mm
02:25 20.7 °F /  -6.3 °C 11.3 °F /  -11.5 °C 1013.8 in /  34327.3 hPa ENE 1.6 mph /  2.6 km/h 1.6 mph /  2.6 km/h 55 % 0.0 in /  0 mm
02:35 21.0 °F /  -6.1 °C 11.3 °F /  -11.5 °C 1013.8 in /  34327.3 hPa ENE 1.6 mph /  2.6 km/h 1.6 mph /  2.6 km/h 54 % 0.0 in /  0 mm
02:45 21.3 °F /  -5.9 °C 11.3 °F /  -11.5 °C 1013.8 in /  34327.3 hPa Calm   1.6 mph /  2.6 km/h 53 % 0.0 in /  0 mm
02:55 21.6 °F /  -5.8 °C 11.9 °F /  -11.2 °C 1013.8 in /  34327.3 hPa Calm   1.6 mph /  2.6 km/h 54 % 0.0 in /  0 mm
03:05 21.9 °F /  -5.6 °C 11.6 °F /  -11.3 °C 1013.8 in /  34327.3 hPa ENE 3.2 mph /  5.1 km/h 3.2 mph /  5.1 km/h 52 % 0.0 in /  0 mm
03:15 22.0 °F /  -5.6 °C 11.4 °F /  -11.4 °C 1013.8 in /  34327.3 hPa ENE 1.6 mph /  2.6 km/h 3.2 mph /  5.1 km/h 51 % 0.0 in /  0 mm
03:25 22.5 °F /  -5.3 °C 11.8 °F /  -11.2 °C 1013.8 in /  34327.3 hPa Calm   3.2 mph /  5.1 km/h 51 % 0.0 in /  0 mm
03:35 22.8 °F /  -5.1 °C 12.1 °F /  -11.1 °C 1013.8 in /  34327.3 hPa SSW 1.6 mph /  2.6 km/h 3.2 mph /  5.1 km/h 51 % 0.0 in /  0 mm
03:45 23.3 °F /  -4.8 °C 11.7 °F /  -11.3 °C 1013.8 in /  34327.3 hPa NE 3.2 mph /  5.1 km/h 6.4 mph /  10.3 km/h 48 % 0.0 in /  0 mm
03:55 24.1 °F /  -4.4 °C 12.4 °F /  -10.9 °C 1013.8 in /  34327.3 hPa ENE 1.6 mph /  2.6 km/h 3.2 mph /  5.1 km/h 48 % 0.0 in /  0 mm
04:05 24.5 °F /  -4.2 °C 12.4 °F /  -10.9 °C 1013.8 in /  34327.3 hPa East 1.6 mph /  2.6 km/h 3.2 mph /  5.1 km/h 47 % 0.0 in /  0 mm
04:15 25.0 °F /  -3.9 °C 12.6 °F /  -10.8 °C 1013.8 in /  34327.3 hPa SSE 1.6 mph /  2.6 km/h 3.2 mph /  5.1 km/h 46 % 0.0 in /  0 mm
04:25 24.8 °F /  -4 °C 12.4 °F /  -10.9 °C 1012.8 in /  34293.4 hPa SW 3.2 mph /  5.1 km/h 3.2 mph /  5.1 km/h 46 % 0.0 in /  0 mm
04:35 25.4 °F /  -3.7 °C 12.6 °F /  -10.8 °C 1012.8 in /  34293.4 hPa Calm   3.2 mph /  5.1 km/h 45 % 0.0 in /  0 mm
04:45 26.3 °F /  -3.2 °C 13.1 °F /  -10.5 °C 1012.8 in /  34293.4 hPa SW 3.2 mph /  5.1 km/h 3.2 mph /  5.1 km/h 44 % 0.0 in /  0 mm
04:55 27.0 °F /  -2.8 °C 13.3 °F /  -10.4 °C 1013.8 in /  34327.3 hPa SSE 1.6 mph /  2.6 km/h 3.2 mph /  5.1 km/h 43 % 0.0 in /  0 mm
05:05 27.6 °F /  -2.4 °C 13.6 °F /  -10.2 °C 1013.8 in /  34327.3 hPa ESE 3.2 mph /  5.1 km/h 4.8 mph /  7.7 km/h 42 % 0.0 in /  0 mm
05:15 28.2 °F /  -2.1 °C 13.3 °F /  -10.4 °C 1012.8 in /  34293.4 hPa SE 4.8 mph /  7.7 km/h 4.8 mph /  7.7 km/h 40 % 0.0 in /  0 mm
05:25 28.9 °F /  -1.7 °C 13.6 °F /  -10.2 °C 1013.8 in /  34327.3 hPa SSE 3.2 mph /  5.1 km/h 3.2 mph /  5.1 km/h 39 % 0.0 in /  0 mm
05:35 28.9 °F /  -1.7 °C 13.2 °F /  -10.4 °C 1013.8 in /  34327.3 hPa SSW 4.8 mph /  7.7 km/h 6.4 mph /  10.3 km/h 38 % 0.0 in /  0 mm
10:41 29.1 °F /  -1.6 °C 12.5 °F /  -10.8 °C 1012.8 in /  34293.4 hPa SW 9.3 mph /  15 km/h 9.3 mph /  15 km/h 36 % 0.0 in /  0 mm
10:46 29.1 °F /  -1.6 °C 12.5 °F /  -10.8 °C 1011.7 in /  34256.2 hPa WSW 7.4 mph /  11.9 km/h 7.4 mph /  11.9 km/h 36 % 0.0 in /  0 mm
10:51 29.5 °F /  -1.4 °C 12.8 °F /  -10.7 °C 1011.7 in /  34256.2 hPa SW 5.3 mph /  8.5 km/h 5.3 mph /  8.5 km/h 36 % 0.0 in /  0 mm
10:56 30.3 °F /  -0.9 °C 13.1 °F /  -10.5 °C 1011.7 in /  34256.2 hPa West 3.7 mph /  6 km/h 3.7 mph /  6 km/h 35 % 0.0 in /  0 mm
11:01 30.6 °F /  -0.8 °C 12.9 °F /  -10.6 °C 1012.8 in /  34293.4 hPa WNW 11.1 mph /  17.9 km/h 11.1 mph /  17.9 km/h 34 % 0.0 in /  0 mm
11:06 30.7 °F /  -0.7 °C 13.1 °F /  -10.5 °C 1012.8 in /  34293.4 hPa SSW 10.0 mph /  16.1 km/h 10.0 mph /  16.1 km/h 34 % 0.0 in /  0 mm
11:11 30.6 °F /  -0.8 °C 12.5 °F /  -10.8 °C 1012.8 in /  34293.4 hPa SSE 9.3 mph /  15 km/h 9.3 mph /  15 km/h 33 % 0.0 in /  0 mm
11:16 31.1 °F /  -0.5 °C 12.4 °F /  -10.9 °C 1011.7 in /  34256.2 hPa WNW 11.1 mph /  17.9 km/h 11.1 mph /  17.9 km/h 32 % 0.0 in /  0 mm
11:21 31.3 °F /  -0.4 °C 12.2 °F /  -11 °C 1011.7 in /  34256.2 hPa South 9.3 mph /  15 km/h 9.3 mph /  15 km/h 31 % 0.0 in /  0 mm
11:26 31.1 °F /  -0.5 °C 12.0 °F /  -11.1 °C 1011.7 in /  34256.2 hPa SW 13.0 mph /  20.9 km/h 13.0 mph /  20.9 km/h 31 % 0.0 in /  0 mm
11:31 31.1 °F /  -0.5 °C 11.5 °F /  -11.4 °C 1011.7 in /  34256.2 hPa SW 13.0 mph /  20.9 km/h 13.0 mph /  20.9 km/h 30 % 0.0 in /  0 mm
11:36 31.2 °F /  -0.4 °C 11.6 °F /  -11.3 °C 1011.7 in /  34256.2 hPa SW 13.0 mph /  20.9 km/h 13.0 mph /  20.9 km/h 30 % 0.0 in /  0 mm
11:41 31.3 °F /  -0.4 °C 11.7 °F /  -11.3 °C 1011.7 in /  34256.2 hPa SW 14.0 mph /  22.5 km/h 14.0 mph /  22.5 km/h 30 % 0.0 in /  0 mm
11:46 31.5 °F /  -0.3 °C 11.3 °F /  -11.5 °C 1011.7 in /  34256.2 hPa SW 9.3 mph /  15 km/h 9.3 mph /  15 km/h 29 % 0.0 in /  0 mm
11:51 31.6 °F /  -0.2 °C 11.4 °F /  -11.4 °C 1011.7 in /  34256.2 hPa SW 13.0 mph /  20.9 km/h 14.0 mph /  22.5 km/h 29 % 0.0 in /  0 mm
11:56 31.4 °F /  -0.3 °C 10.7 °F /  -11.8 °C 1011.7 in /  34256.2 hPa WSW 11.1 mph /  17.9 km/h 11.1 mph /  17.9 km/h 28 % 0.0 in /  0 mm
12:01 31.6 °F /  -0.2 °C 11.4 °F /  -11.4 °C 1011.7 in /  34256.2 hPa SW 18.5 mph /  29.8 km/h 18.5 mph /  29.8 km/h 29 % 0.0 in /  0 mm
12:06 31.8 °F /  -0.1 °C 11.6 °F /  -11.3 °C 1011.7 in /  34256.2 hPa SW 9.0 mph /  14.5 km/h 9.0 mph /  14.5 km/h 29 % 0.0 in /  0 mm
12:11 31.6 °F /  -0.2 °C 10.9 °F /  -11.7 °C 1011.7 in /  34256.2 hPa SW 14.8 mph /  23.8 km/h 14.8 mph /  23.8 km/h 28 % 0.0 in /  0 mm
12:16 31.9 °F /  -0.1 °C 11.1 °F /  -11.6 °C 1011.7 in /  34256.2 hPa SSW 13.0 mph /  20.9 km/h 13.0 mph /  20.9 km/h 28 % 0.0 in /  0 mm
12:21 32.0 °F /  0 °C 10.7 °F /  -11.8 °C 1011.7 in /  34256.2 hPa SW 13.0 mph /  20.9 km/h 13.0 mph /  20.9 km/h 27 % 0.0 in /  0 mm
12:26 32.3 °F /  0.2 °C 10.9 °F /  -11.7 °C 1011.7 in /  34256.2 hPa SW 13.0 mph /  20.9 km/h 13.0 mph /  20.9 km/h 27 % 0.0 in /  0 mm
12:31 32.6 °F /  0.3 °C 11.2 °F /  -11.6 °C 1011.7 in /  34256.2 hPa WSW 11.1 mph /  17.9 km/h 11.1 mph /  17.9 km/h 27 % 0.0 in /  0 mm
12:32 32.6 °F /  0.3 °C 11.2 °F /  -11.6 °C 1011.7 in /  34256.2 hPa SW 9.5 mph /  15.3 km/h 9.5 mph /  15.3 km/h 27 % 0.0 in /  0 mm
12:37 32.7 °F /  0.4 °C 11.3 °F /  -11.5 °C 1011.7 in /  34256.2 hPa South 9.3 mph /  15 km/h 9.3 mph /  15 km/h 27 % 0.0 in /  0 mm
12:42 32.5 °F /  0.3 °C 11.1 °F /  -11.6 °C 1011.7 in /  34256.2 hPa SSW 16.7 mph /  26.9 km/h 16.7 mph /  26.9 km/h 27 % 0.0 in /  0 mm
12:47 32.5 °F /  0.3 °C 10.5 °F /  -11.9 °C 1011.7 in /  34256.2 hPa SSW 22.2 mph /  35.7 km/h 22.2 mph /  35.7 km/h 26 % 0.0 in /  0 mm
12:52 32.5 °F /  0.3 °C 10.5 °F /  -11.9 °C 1011.7 in /  34256.2 hPa SSW 14.8 mph /  23.8 km/h 14.8 mph /  23.8 km/h 26 % 0.0 in /  0 mm
12:57 33.0 °F /  0.6 °C 10.9 °F /  -11.7 °C 1011.7 in /  34256.2 hPa SSW 9.5 mph /  15.3 km/h 9.5 mph /  15.3 km/h 26 % 0.0 in /  0 mm
13:02 33.1 °F /  0.6 °C 11.0 °F /  -11.7 °C 1011.7 in /  34256.2 hPa SSE 13.0 mph /  20.9 km/h 13.0 mph /  20.9 km/h 26 % 0.0 in /  0 mm
13:07 33.9 °F /  1.1 °C 11.7 °F /  -11.3 °C 1011.7 in /  34256.2 hPa SSW 4.7 mph /  7.6 km/h 4.7 mph /  7.6 km/h 26 % 0.0 in /  0 mm
13:12 33.6 °F /  0.9 °C 11.4 °F /  -11.4 °C 1011.7 in /  34256.2 hPa South 19.5 mph /  31.4 km/h 19.5 mph /  31.4 km/h 26 % 0.0 in /  0 mm
13:17 33.5 °F /  0.8 °C 11.4 °F /  -11.4 °C 1011.7 in /  34256.2 hPa SW 14.8 mph /  23.8 km/h 14.8 mph /  23.8 km/h 26 % 0.0 in /  0 mm
13:22 33.6 °F /  0.9 °C 11.4 °F /  -11.4 °C 1011.7 in /  34256.2 hPa SSE 9.3 mph /  15 km/h 9.3 mph /  15 km/h 26 % 0.0 in /  0 mm
13:27 33.7 °F /  0.9 °C 11.6 °F /  -11.3 °C 1011.7 in /  34256.2 hPa WSW 16.7 mph /  26.9 km/h 16.7 mph /  26.9 km/h 26 % 0.0 in /  0 mm
13:32 33.8 °F /  1 °C 11.0 °F /  -11.7 °C 1011.7 in /  34256.2 hPa SW 12.2 mph /  19.6 km/h 12.2 mph /  19.6 km/h 25 % 0.0 in /  0 mm
13:37 33.8 °F /  1 °C 11.0 °F /  -11.7 °C 1011.7 in /  34256.2 hPa SSW 13.0 mph /  20.9 km/h 13.0 mph /  20.9 km/h 25 % 0.0 in /  0 mm
13:42 34.5 °F /  1.4 °C 11.6 °F /  -11.3 °C 1011.7 in /  34256.2 hPa WSW 9.3 mph /  15 km/h 9.7 mph /  15.6 km/h 25 % 0.0 in /  0 mm
13:47 34.0 °F /  1.1 °C 11.2 °F /  -11.6 °C 1010.7 in /  34222.3 hPa South 9.0 mph /  14.5 km/h 9.0 mph /  14.5 km/h 25 % 0.0 in /  0 mm
13:52 34.0 °F /  1.1 °C 11.2 °F /  -11.6 °C 1010.7 in /  34222.3 hPa South 11.1 mph /  17.9 km/h 11.1 mph /  17.9 km/h 25 % 0.0 in /  0 mm
13:57 34.0 °F /  1.1 °C 10.6 °F /  -11.9 °C 1010.7 in /  34222.3 hPa South 11.1 mph /  17.9 km/h 11.1 mph /  17.9 km/h 24 % 0.0 in /  0 mm
14:02 34.0 °F /  1.1 °C 10.6 °F /  -11.9 °C 1011.7 in /  34256.2 hPa ESE 18.5 mph /  29.8 km/h 18.5 mph /  29.8 km/h 24 % 0.0 in /  0 mm
14:07 34.5 °F /  1.4 °C 11.6 °F /  -11.3 °C 1011.7 in /  34256.2 hPa South 14.8 mph /  23.8 km/h 14.8 mph /  23.8 km/h 25 % 0.0 in /  0 mm
14:12 33.9 °F /  1.1 °C 10.5 °F /  -11.9 °C 1011.7 in /  34256.2 hPa SW 18.5 mph /  29.8 km/h 18.5 mph /  29.8 km/h 24 % 0.0 in /  0 mm
14:17 33.8 °F /  1 °C 10.4 °F /  -12 °C 1011.7 in /  34256.2 hPa SSW 16.9 mph /  27.2 km/h 16.9 mph /  27.2 km/h 24 % 0.0 in /  0 mm
14:22 33.9 °F /  1.1 °C 10.5 °F /  -11.9 °C 1011.7 in /  34256.2 hPa WSW 11.1 mph /  17.9 km/h 11.1 mph /  17.9 km/h 24 % 0.0 in /  0 mm
14:27 34.2 °F /  1.2 °C 11.4 °F /  -11.4 °C 1011.7 in /  34256.2 hPa SSW 9.3 mph /  15 km/h 9.3 mph /  15 km/h 25 % 0.0 in /  0 mm
14:32 33.9 °F /  1.1 °C 10.5 °F /  -11.9 °C 1011.7 in /  34256.2 hPa South 20.4 mph /  32.8 km/h 20.4 mph /  32.8 km/h 24 % 0.0 in /  0 mm
14:37 34.4 °F /  1.3 °C 10.9 °F /  -11.7 °C 1011.7 in /  34256.2 hPa South 9.3 mph /  15 km/h 9.3 mph /  15 km/h 24 % 0.0 in /  0 mm
14:42 34.1 °F /  1.2 °C 10.7 °F /  -11.8 °C 1011.7 in /  34256.2 hPa WSW 13.0 mph /  20.9 km/h 13.0 mph /  20.9 km/h 24 % 0.0 in /  0 mm
14:47 34.2 °F /  1.2 °C 10.7 °F /  -11.8 °C 1011.7 in /  34256.2 hPa SW 16.7 mph /  26.9 km/h 16.7 mph /  26.9 km/h 24 % 0.0 in /  0 mm
14:52 34.5 °F /  1.4 °C 11.0 °F /  -11.7 °C 1011.7 in /  34256.2 hPa SSW 9.3 mph /  15 km/h 9.3 mph /  15 km/h 24 % 0.0 in /  0 mm
14:57 34.8 °F /  1.6 °C 11.2 °F /  -11.6 °C 1011.7 in /  34256.2 hPa SSW 14.8 mph /  23.8 km/h 14.8 mph /  23.8 km/h 24 % 0.0 in /  0 mm
15:02 34.4 °F /  1.3 °C 10.3 °F /  -12.1 °C 1011.7 in /  34256.2 hPa SSW 20.4 mph /  32.8 km/h 20.4 mph /  32.8 km/h 23 % 0.0 in /  0 mm
15:07 34.3 °F /  1.3 °C 10.8 °F /  -11.8 °C 1011.7 in /  34256.2 hPa SW 14.0 mph /  22.5 km/h 14.0 mph /  22.5 km/h 24 % 0.0 in /  0 mm
15:12 34.3 °F /  1.3 °C 10.8 °F /  -11.8 °C 1011.7 in /  34256.2 hPa SSW 10.0 mph /  16.1 km/h 10.0 mph /  16.1 km/h 24 % 0.0 in /  0 mm
15:17 34.2 °F /  1.2 °C 10.7 °F /  -11.8 °C 1011.7 in /  34256.2 hPa WSW 9.3 mph /  15 km/h 9.3 mph /  15 km/h 24 % 0.0 in /  0 mm
15:22 34.8 °F /  1.6 °C 10.6 °F /  -11.9 °C 1011.7 in /  34256.2 hPa SSW 9.7 mph /  15.6 km/h 9.7 mph /  15.6 km/h 23 % 0.0 in /  0 mm
15:27 35.0 °F /  1.7 °C 10.8 °F /  -11.8 °C 1011.7 in /  34256.2 hPa SSE 7.4 mph /  11.9 km/h 7.4 mph /  11.9 km/h 23 % 0.0 in /  0 mm
15:32 35.0 °F /  1.7 °C 10.1 °F /  -12.2 °C 1011.7 in /  34256.2 hPa SSW 14.8 mph /  23.8 km/h 14.8 mph /  23.8 km/h 22 % 0.0 in /  0 mm
15:37 34.8 °F /  1.6 °C 11.2 °F /  -11.6 °C 1011.7 in /  34256.2 hPa SW 13.0 mph /  20.9 km/h 13.0 mph /  20.9 km/h 24 % 0.0 in /  0 mm
15:42 34.9 °F /  1.6 °C 10.7 °F /  -11.8 °C 1011.7 in /  34256.2 hPa West 14.8 mph /  23.8 km/h 14.8 mph /  23.8 km/h 23 % 0.0 in /  0 mm
15:47 34.9 °F /  1.6 °C 10.7 °F /  -11.8 °C 1010.7 in /  34222.3 hPa SW 16.1 mph /  25.9 km/h 16.1 mph /  25.9 km/h 23 % 0.0 in /  0 mm
15:52 34.6 °F /  1.4 °C 10.4 °F /  -12 °C 1010.7 in /  34222.3 hPa SW 13.0 mph /  20.9 km/h 13.0 mph /  20.9 km/h 23 % 0.0 in /  0 mm
15:57 34.6 °F /  1.4 °C 10.4 °F /  -12 °C 1010.7 in /  34222.3 hPa SSE 11.1 mph /  17.9 km/h 11.1 mph /  17.9 km/h 23 % 0.0 in /  0 mm
16:02 34.9 °F /  1.6 °C 10.7 °F /  -11.8 °C 1010.7 in /  34222.3 hPa SW 12.2 mph /  19.6 km/h 12.2 mph /  19.6 km/h 23 % 0.0 in /  0 mm
16:07 34.9 °F /  1.6 °C 10.7 °F /  -11.8 °C 1010.7 in /  34222.3 hPa WSW 16.7 mph /  26.9 km/h 16.7 mph /  26.9 km/h 23 % 0.0 in /  0 mm
16:12 35.3 °F /  1.8 °C 10.3 °F /  -12.1 °C 1010.7 in /  34222.3 hPa SSW 7.4 mph /  11.9 km/h 7.4 mph /  11.9 km/h 22 % 0.0 in /  0 mm
16:17 35.2 °F /  1.8 °C 10.9 °F /  -11.7 °C 1010.7 in /  34222.3 hPa SW 11.1 mph /  17.9 km/h 11.1 mph /  17.9 km/h 23 % 0.0 in /  0 mm
16:22 35.1 °F /  1.7 °C 10.8 °F /  -11.8 °C 1010.7 in /  34222.3 hPa SSW 13.0 mph /  20.9 km/h 13.0 mph /  20.9 km/h 23 % 0.0 in /  0 mm
16:27 35.0 °F /  1.7 °C 10.1 °F /  -12.2 °C 1010.7 in /  34222.3 hPa SW 14.8 mph /  23.8 km/h 14.8 mph /  23.8 km/h 22 % 0.0 in /  0 mm
16:32 35.1 °F /  1.7 °C 10.2 °F /  -12.1 °C 1010.7 in /  34222.3 hPa SW 14.8 mph /  23.8 km/h 14.8 mph /  23.8 km/h 22 % 0.0 in /  0 mm
16:37 34.9 °F /  1.6 °C 10.7 °F /  -11.8 °C 1010.7 in /  34222.3 hPa SSE 9.3 mph /  15 km/h 9.3 mph /  15 km/h 23 % 0.0 in /  0 mm
16:42 34.4 °F /  1.3 °C 10.3 °F /  -12.1 °C 1010.7 in /  34222.3 hPa SSE 11.1 mph /  17.9 km/h 11.1 mph /  17.9 km/h 23 % 0.0 in /  0 mm
16:47 34.2 °F /  1.2 °C 10.1 °F /  -12.2 °C 1010.7 in /  34222.3 hPa SSW 16.7 mph /  26.9 km/h 16.7 mph /  26.9 km/h 23 % 0.0 in /  0 mm
16:52 34.4 °F /  1.3 °C 10.3 °F /  -12.1 °C 1010.7 in /  34222.3 hPa SW 11.1 mph /  17.9 km/h 11.1 mph /  17.9 km/h 23 % 0.0 in /  0 mm
16:57 34.7 °F /  1.5 °C 10.5 °F /  -11.9 °C 1010.7 in /  34222.3 hPa SW 20.4 mph /  32.8 km/h 20.4 mph /  32.8 km/h 23 % 0.0 in /  0 mm
17:02 33.9 °F /  1.1 °C 9.8 °F /  -12.3 °C 1010.7 in /  34222.3 hPa WSW 16.7 mph /  26.9 km/h 16.7 mph /  26.9 km/h 23 % 0.0 in /  0 mm
17:07 33.9 °F /  1.1 °C 9.8 °F /  -12.3 °C 1010.7 in /  34222.3 hPa SW 14.8 mph /  23.8 km/h 14.8 mph /  23.8 km/h 23 % 0.0 in /  0 mm
17:12 34.3 °F /  1.3 °C 10.8 °F /  -11.8 °C 1010.7 in /  34222.3 hPa WSW 12.6 mph /  20.3 km/h 12.6 mph /  20.3 km/h 24 % 0.0 in /  0 mm
17:17 33.9 °F /  1.1 °C 10.5 °F /  -11.9 °C 1010.0 in /  34198.6 hPa SSW 14.8 mph /  23.8 km/h 14.8 mph /  23.8 km/h 24 % 0.0 in /  0 mm
17:22 34.0 °F /  1.1 °C 10.6 °F /  -11.9 °C 1010.0 in /  34198.6 hPa SSW 13.0 mph /  20.9 km/h 13.0 mph /  20.9 km/h 24 % 0.0 in /  0 mm
17:27 34.3 °F /  1.3 °C 10.8 °F /  -11.8 °C 1010.0 in /  34198.6 hPa West 13.0 mph /  20.9 km/h 13.0 mph /  20.9 km/h 24 % 0.0 in /  0 mm
17:32 34.1 °F /  1.2 °C 10.7 °F /  -11.8 °C 1010.0 in /  34198.6 hPa SW 11.1 mph /  17.9 km/h 11.1 mph /  17.9 km/h 24 % 0.0 in /  0 mm
17:37 34.2 °F /  1.2 °C 10.7 °F /  -11.8 °C 1010.0 in /  34198.6 hPa SW 7.9 mph /  12.7 km/h 7.9 mph /  12.7 km/h 24 % 0.0 in /  0 mm
17:42 34.1 °F /  1.2 °C 10.7 °F /  -11.8 °C 1010.0 in /  34198.6 hPa SSW 16.7 mph /  26.9 km/h 16.7 mph /  26.9 km/h 24 % 0.0 in /  0 mm
17:47 33.7 °F /  0.9 °C 10.3 °F /  -12.1 °C 1010.0 in /  34198.6 hPa SSE 18.5 mph /  29.8 km/h 18.5 mph /  29.8 km/h 24 % 0.0 in /  0 mm
17:52 33.8 °F /  1 °C 10.4 °F /  -12 °C 1010.0 in /  34198.6 hPa WSW 13.0 mph /  20.9 km/h 13.0 mph /  20.9 km/h 24 % 0.0 in /  0 mm
17:57 33.9 °F /  1.1 °C 10.5 °F /  -11.9 °C 1010.0 in /  34198.6 hPa East 13.0 mph /  20.9 km/h 13.0 mph /  20.9 km/h 24 % 0.0 in /  0 mm
18:02 33.7 °F /  0.9 °C 9.7 °F /  -12.4 °C 1010.0 in /  34198.6 hPa SE 11.1 mph /  17.9 km/h 11.1 mph /  17.9 km/h 23 % 0.0 in /  0 mm
18:07 33.6 °F /  0.9 °C 9.6 °F /  -12.4 °C 1010.0 in /  34198.6 hPa South 9.3 mph /  15 km/h 9.3 mph /  15 km/h 23 % 0.0 in /  0 mm
18:12 33.5 °F /  0.8 °C 10.2 °F /  -12.1 °C 1010.0 in /  34198.6 hPa South 11.1 mph /  17.9 km/h 11.1 mph /  17.9 km/h 24 % 0.0 in /  0 mm
18:17 33.7 °F /  0.9 °C 10.3 °F /  -12.1 °C 1010.0 in /  34198.6 hPa SW 9.3 mph /  15 km/h 9.3 mph /  15 km/h 24 % 0.0 in /  0 mm
18:22 33.4 °F /  0.8 °C 10.1 °F /  -12.2 °C 1010.0 in /  34198.6 hPa WSW 13.0 mph /  20.9 km/h 13.0 mph /  20.9 km/h 24 % 0.0 in /  0 mm
18:27 33.3 °F /  0.7 °C 10.0 °F /  -12.2 °C 1010.0 in /  34198.6 hPa WSW 9.3 mph /  15 km/h 9.7 mph /  15.6 km/h 24 % 0.0 in /  0 mm
18:32 33.1 °F /  0.6 °C 9.8 °F /  -12.3 °C 1009.0 in /  34164.7 hPa SW 9.0 mph /  14.5 km/h 9.0 mph /  14.5 km/h 24 % 0.0 in /  0 mm
18:35 25.3 °F /  -3.7 °C 5.4 °F /  -14.8 °C 1012.8 in /  34293.4 hPa WSW 1.6 mph /  2.6 km/h 3.2 mph /  5.1 km/h 28 % 0.0 in /  0 mm
18:37 33.0 °F /  0.6 °C 9.1 °F /  -12.7 °C 1009.0 in /  34164.7 hPa SW 16.7 mph /  26.9 km/h 16.7 mph /  26.9 km/h 23 % 0.0 in /  0 mm
18:42 32.9 °F /  0.5 °C 9.7 °F /  -12.4 °C 1009.0 in /  34164.7 hPa SSW 9.5 mph /  15.3 km/h 9.5 mph /  15.3 km/h 24 % 0.0 in /  0 mm
18:45 25.2 °F /  -3.8 °C 5.4 °F /  -14.8 °C 1012.8 in /  34293.4 hPa West 1.6 mph /  2.6 km/h 3.2 mph /  5.1 km/h 28 % 0.0 in /  0 mm
18:47 32.7 °F /  0.4 °C 9.5 °F /  -12.5 °C 1010.0 in /  34198.6 hPa SW 11.1 mph /  17.9 km/h 11.1 mph /  17.9 km/h 24 % 0.0 in /  0 mm
18:52 32.0 °F /  0 °C 8.9 °F /  -12.8 °C 1010.0 in /  34198.6 hPa SSW 18.5 mph /  29.8 km/h 18.5 mph /  29.8 km/h 24 % 0.0 in /  0 mm
18:55 25.1 °F /  -3.8 °C 5.3 °F /  -14.8 °C 1012.8 in /  34293.4 hPa Calm   3.2 mph /  5.1 km/h 28 % 0.0 in /  0 mm
18:57 32.1 °F /  0.1 °C 9.0 °F /  -12.8 °C 1010.0 in /  34198.6 hPa SW 13.0 mph /  20.9 km/h 13.0 mph /  20.9 km/h 24 % 0.0 in /  0 mm
19:02 32.2 °F /  0.1 °C 9.1 °F /  -12.7 °C 1010.0 in /  34198.6 hPa SW 9.3 mph /  15 km/h 9.3 mph /  15 km/h 24 % 0.0 in /  0 mm
19:07 32.0 °F /  0 °C 8.9 °F /  -12.8 °C 1010.0 in /  34198.6 hPa WSW 13.0 mph /  20.9 km/h 13.0 mph /  20.9 km/h 24 % 0.0 in /  0 mm
19:12 31.9 °F /  -0.1 °C 8.8 °F /  -12.9 °C 1010.0 in /  34198.6 hPa SW 18.5 mph /  29.8 km/h 18.5 mph /  29.8 km/h 24 % 0.0 in /  0 mm
19:15 24.8 °F /  -4 °C 6.1 °F /  -14.4 °C 1012.8 in /  34293.4 hPa Calm     30 % 0.0 in /  0 mm
19:17 31.7 °F /  -0.2 °C 8.7 °F /  -12.9 °C 1010.0 in /  34198.6 hPa SW 11.1 mph /  17.9 km/h 11.1 mph /  17.9 km/h 24 % 0.0 in /  0 mm
19:22 31.6 °F /  -0.2 °C 8.6 °F /  -13 °C 1010.0 in /  34198.6 hPa SSW 11.1 mph /  17.9 km/h 11.1 mph /  17.9 km/h 24 % 0.0 in /  0 mm
19:25 24.7 °F /  -4.1 °C 5.9 °F /  -14.5 °C 1012.8 in /  34293.4 hPa Calm   1.6 mph /  2.6 km/h 30 % 0.0 in /  0 mm
19:27 31.5 °F /  -0.3 °C 8.5 °F /  -13.1 °C 1010.0 in /  34198.6 hPa SSW 13.0 mph /  20.9 km/h 13.0 mph /  20.9 km/h 24 % 0.0 in /  0 mm
19:32 31.1 °F /  -0.5 °C 8.2 °F /  -13.2 °C 1010.0 in /  34198.6 hPa WSW 11.9 mph /  19.2 km/h 11.9 mph /  19.2 km/h 24 % 0.0 in /  0 mm
19:35 24.6 °F /  -4.1 °C 5.9 °F /  -14.5 °C 1012.8 in /  34293.4 hPa Calm     30 % 0.0 in /  0 mm
19:37 30.9 °F /  -0.6 °C 8.0 °F /  -13.3 °C 1010.0 in /  34198.6 hPa SW 9.3 mph /  15 km/h 9.3 mph /  15 km/h 24 % 0.0 in /  0 mm
19:42 30.7 °F /  -0.7 °C 7.8 °F /  -13.4 °C 1010.0 in /  34198.6 hPa WSW 14.8 mph /  23.8 km/h 14.8 mph /  23.8 km/h 24 % 0.0 in /  0 mm
19:45 24.4 °F /  -4.2 °C 6.2 °F /  -14.3 °C 1012.8 in /  34293.4 hPa Calm     31 % 0.0 in /  0 mm
19:47 30.6 °F /  -0.8 °C 7.7 °F /  -13.5 °C 1010.0 in /  34198.6 hPa SW 16.7 mph /  26.9 km/h 16.7 mph /  26.9 km/h 24 % 0.0 in /  0 mm
19:52 30.6 °F /  -0.8 °C 7.7 °F /  -13.5 °C 1010.0 in /  34198.6 hPa SW 9.3 mph /  15 km/h 9.3 mph /  15 km/h 24 % 0.0 in /  0 mm
19:55 24.0 °F /  -4.4 °C 6.3 °F /  -14.3 °C 1012.8 in /  34293.4 hPa Calm     32 % 0.0 in /  0 mm
19:57 30.5 °F /  -0.8 °C 7.7 °F /  -13.5 °C 1010.0 in /  34198.6 hPa SSW 9.3 mph /  15 km/h 9.3 mph /  15 km/h 24 % 0.0 in /  0 mm
20:02 30.4 °F /  -0.9 °C 7.6 °F /  -13.6 °C 1010.0 in /  34198.6 hPa SW 13.0 mph /  20.9 km/h 13.0 mph /  20.9 km/h 24 % 0.0 in /  0 mm
20:05 23.6 °F /  -4.7 °C 5.9 °F /  -14.5 °C 1012.8 in /  34293.4 hPa SSW 1.6 mph /  2.6 km/h 3.2 mph /  5.1 km/h 32 % 0.0 in /  0 mm
20:07 30.3 °F /  -0.9 °C 7.5 °F /  -13.6 °C 1010.0 in /  34198.6 hPa WSW 16.9 mph /  27.2 km/h 16.9 mph /  27.2 km/h 24 % 0.0 in /  0 mm
20:12 30.1 °F /  -1.1 °C 7.3 °F /  -13.7 °C 1010.0 in /  34198.6 hPa WSW 13.0 mph /  20.9 km/h 13.0 mph /  20.9 km/h 24 % 0.0 in /  0 mm
20:15 23.6 °F /  -4.7 °C 6.4 °F /  -14.2 °C 1012.8 in /  34293.4 hPa Calm   1.6 mph /  2.6 km/h 33 % 0.0 in /  0 mm
20:18 30.0 °F /  -1.1 °C 6.6 °F /  -14.1 °C 1010.0 in /  34198.6 hPa SW 11.1 mph /  17.9 km/h 11.1 mph /  17.9 km/h 23 % 0.0 in /  0 mm
20:23 29.9 °F /  -1.2 °C 7.1 °F /  -13.8 °C 1010.0 in /  34198.6 hPa SSW 9.5 mph /  15.3 km/h 9.5 mph /  15.3 km/h 24 % 0.0 in /  0 mm
20:25 23.5 °F /  -4.7 °C 6.3 °F /  -14.3 °C 1013.8 in /  34327.3 hPa NW 1.6 mph /  2.6 km/h 1.6 mph /  2.6 km/h 33 % 0.0 in /  0 mm
20:28 29.8 °F /  -1.2 °C 7.1 °F /  -13.8 °C 1010.0 in /  34198.6 hPa WSW 14.8 mph /  23.8 km/h 14.8 mph /  23.8 km/h 24 % 0.0 in /  0 mm
20:33 29.7 °F /  -1.3 °C 6.9 °F /  -13.9 °C 1010.7 in /  34222.3 hPa SSW 9.3 mph /  15 km/h 9.3 mph /  15 km/h 24 % 0.0 in /  0 mm
20:35 23.3 °F /  -4.8 °C 6.9 °F /  -13.9 °C 1013.8 in /  34327.3 hPa NNW 1.6 mph /  2.6 km/h 3.2 mph /  5.1 km/h 35 % 0.0 in /  0 mm
20:38 29.5 °F /  -1.4 °C 6.8 °F /  -14 °C 1010.7 in /  34222.3 hPa SW 9.3 mph /  15 km/h 9.3 mph /  15 km/h 24 % 0.0 in /  0 mm
20:43 29.4 °F /  -1.4 °C 6.7 °F /  -14.1 °C 1010.7 in /  34222.3 hPa SSW 9.3 mph /  15 km/h 9.3 mph /  15 km/h 24 % 0.0 in /  0 mm
20:45 23.2 °F /  -4.9 °C 6.9 °F /  -13.9 °C 1013.8 in /  34327.3 hPa Calm   4.8 mph /  7.7 km/h 35 % 0.0 in /  0 mm
20:48 29.2 °F /  -1.6 °C 6.6 °F /  -14.1 °C 1010.7 in /  34222.3 hPa SW 7.4 mph /  11.9 km/h 7.4 mph /  11.9 km/h 24 % 0.0 in /  0 mm
20:53 29.1 °F /  -1.6 °C 6.4 °F /  -14.2 °C 1010.7 in /  34222.3 hPa South 9.3 mph /  15 km/h 9.3 mph /  15 km/h 24 % 0.0 in /  0 mm
20:55 23.1 °F /  -4.9 °C 6.8 °F /  -14 °C 1013.8 in /  34327.3 hPa Calm     35 % 0.0 in /  0 mm
20:58 28.9 °F /  -1.7 °C 6.9 °F /  -13.9 °C 1010.7 in /  34222.3 hPa SW 9.3 mph /  15 km/h 9.3 mph /  15 km/h 25 % 0.0 in /  0 mm
21:03 28.8 °F /  -1.8 °C 6.8 °F /  -14 °C 1011.7 in /  34256.2 hPa SSW 7.4 mph /  11.9 km/h 7.4 mph /  11.9 km/h 25 % 0.0 in /  0 mm
21:05 23.0 °F /  -5 °C 7.1 °F /  -13.8 °C 1013.8 in /  34327.3 hPa Calm     36 % 0.0 in /  0 mm
21:08 28.6 °F /  -1.9 °C 6.6 °F /  -14.1 °C 1011.7 in /  34256.2 hPa SW 9.3 mph /  15 km/h 9.3 mph /  15 km/h 25 % 0.0 in /  0 mm
21:13 28.4 °F /  -2 °C 6.4 °F /  -14.2 °C 1011.7 in /  34256.2 hPa SW 5.6 mph /  9 km/h 5.6 mph /  9 km/h 25 % 0.0 in /  0 mm
21:15 22.7 °F /  -5.2 °C 7.7 °F /  -13.5 °C 1012.8 in /  34293.4 hPa Calm     38 % 0.0 in /  0 mm
21:18 28.3 °F /  -2.1 °C 6.4 °F /  -14.2 °C 1011.7 in /  34256.2 hPa SW 9.3 mph /  15 km/h 9.3 mph /  15 km/h 25 % 0.0 in /  0 mm
21:23 28.2 °F /  -2.1 °C 6.3 °F /  -14.3 °C 1011.7 in /  34256.2 hPa SW 9.3 mph /  15 km/h 9.3 mph /  15 km/h 25 % 0.0 in /  0 mm
21:25 22.5 °F /  -5.3 °C 7.8 °F /  -13.4 °C 1012.8 in /  34293.4 hPa Calm     39 % 0.0 in /  0 mm
21:28 28.0 °F /  -2.2 °C 5.6 °F /  -14.7 °C 1011.7 in /  34256.2 hPa SW 5.6 mph /  9 km/h 5.6 mph /  9 km/h 24 % 0.0 in /  0 mm
21:33 27.8 °F /  -2.3 °C 5.9 °F /  -14.5 °C 1011.7 in /  34256.2 hPa SW 5.6 mph /  9 km/h 5.6 mph /  9 km/h 25 % 0.0 in /  0 mm
21:35 22.3 °F /  -5.4 °C 7.7 °F /  -13.5 °C 1012.8 in /  34293.4 hPa Calm   1.6 mph /  2.6 km/h 39 % 0.0 in /  0 mm
21:38 27.7 °F /  -2.4 °C 5.9 °F /  -14.5 °C 1011.7 in /  34256.2 hPa SW 4.7 mph /  7.6 km/h 4.7 mph /  7.6 km/h 25 % 0.0 in /  0 mm
21:43 27.6 °F /  -2.4 °C 5.8 °F /  -14.6 °C 1011.7 in /  34256.2 hPa WSW 5.6 mph /  9 km/h 5.6 mph /  9 km/h 25 % 0.0 in /  0 mm
21:45 22.3 °F /  -5.4 °C 8.1 °F /  -13.3 °C 1012.8 in /  34293.4 hPa Calm   1.6 mph /  2.6 km/h 40 % 0.0 in /  0 mm
21:48 27.4 °F /  -2.6 °C 5.6 °F /  -14.7 °C 1011.7 in /  34256.2 hPa SW 3.7 mph /  6 km/h 3.7 mph /  6 km/h 25 % 0.0 in /  0 mm
21:53 27.2 °F /  -2.7 °C 5.4 °F /  -14.8 °C 1011.7 in /  34256.2 hPa SW 3.9 mph /  6.3 km/h 3.9 mph /  6.3 km/h 25 % 0.0 in /  0 mm
21:55 22.2 °F /  -5.4 °C 7.9 °F /  -13.4 °C 1012.8 in /  34293.4 hPa Calm     40 % 0.0 in /  0 mm
21:58 27.1 °F /  -2.7 °C 5.4 °F /  -14.8 °C 1011.7 in /  34256.2 hPa SW 5.6 mph /  9 km/h 5.6 mph /  9 km/h 25 % 0.0 in /  0 mm
22:03 27.0 °F /  -2.8 °C 5.8 °F /  -14.6 °C 1011.7 in /  34256.2 hPa SW 3.7 mph /  6 km/h 3.7 mph /  6 km/h 26 % 0.0 in /  0 mm
22:05 22.1 °F /  -5.5 °C 7.9 °F /  -13.4 °C 1012.8 in /  34293.4 hPa Calm   1.6 mph /  2.6 km/h 40 % 0.0 in /  0 mm
22:08 26.8 °F /  -2.9 °C 5.7 °F /  -14.6 °C 1011.7 in /  34256.2 hPa SW 3.9 mph /  6.3 km/h 3.9 mph /  6.3 km/h 26 % 0.0 in /  0 mm
22:13 26.6 °F /  -3 °C 5.5 °F /  -14.7 °C 1011.7 in /  34256.2 hPa SSW 3.7 mph /  6 km/h 3.7 mph /  6 km/h 26 % 0.0 in /  0 mm
22:15 22.1 °F /  -5.5 °C 7.9 °F /  -13.4 °C 1011.7 in /  34256.2 hPa Calm   1.6 mph /  2.6 km/h 40 % 0.0 in /  0 mm
22:18 26.5 °F /  -3.1 °C 5.4 °F /  -14.8 °C 1011.7 in /  34256.2 hPa SW 3.7 mph /  6 km/h 3.7 mph /  6 km/h 26 % 0.0 in /  0 mm
22:23 26.4 °F /  -3.1 °C 5.3 °F /  -14.8 °C 1011.7 in /  34256.2 hPa WSW 3.9 mph /  6.3 km/h 3.9 mph /  6.3 km/h 26 % 0.0 in /  0 mm
22:25 22.0 °F /  -5.6 °C 8.1 °F /  -13.3 °C 1011.7 in /  34256.2 hPa Calm   3.2 mph /  5.1 km/h 41 % 0.0 in /  0 mm
22:28 26.3 °F /  -3.2 °C 5.3 °F /  -14.8 °C 1011.7 in /  34256.2 hPa WSW 5.6 mph /  9 km/h 5.6 mph /  9 km/h 26 % 0.0 in /  0 mm
22:33 26.2 °F /  -3.2 °C 5.7 °F /  -14.6 °C 1011.7 in /  34256.2 hPa WSW 3.9 mph /  6.3 km/h 3.9 mph /  6.3 km/h 27 % 0.0 in /  0 mm
22:35 21.7 °F /  -5.7 °C 7.9 °F /  -13.4 °C 1011.7 in /  34256.2 hPa NE 1.6 mph /  2.6 km/h 1.6 mph /  2.6 km/h 41 % 0.0 in /  0 mm
22:38 26.1 °F /  -3.3 °C 5.6 °F /  -14.7 °C 1011.7 in /  34256.2 hPa WSW 3.7 mph /  6 km/h 3.7 mph /  6 km/h 27 % 0.0 in /  0 mm
22:43 25.9 °F /  -3.4 °C 5.4 °F /  -14.8 °C 1011.7 in /  34256.2 hPa WSW 3.7 mph /  6 km/h 3.7 mph /  6 km/h 27 % 0.0 in /  0 mm
22:45 21.4 °F /  -5.9 °C 7.6 °F /  -13.6 °C 1011.7 in /  34256.2 hPa Calm   3.2 mph /  5.1 km/h 41 % 0.0 in /  0 mm
22:48 25.8 °F /  -3.4 °C 5.4 °F /  -14.8 °C 1012.8 in /  34293.4 hPa SW 3.7 mph /  6 km/h 3.7 mph /  6 km/h 27 % 0.0 in /  0 mm
22:53 25.7 °F /  -3.5 °C 5.3 °F /  -14.8 °C 1012.8 in /  34293.4 hPa WSW 3.9 mph /  6.3 km/h 3.9 mph /  6.3 km/h 27 % 0.0 in /  0 mm
22:55 21.3 °F /  -5.9 °C 7.9 °F /  -13.4 °C 1011.7 in /  34256.2 hPa Calm   1.6 mph /  2.6 km/h 42 % 0.0 in /  0 mm
22:58 25.6 °F /  -3.6 °C 5.2 °F /  -14.9 °C 1012.8 in /  34293.4 hPa SW 3.7 mph /  6 km/h 3.7 mph /  6 km/h 27 % 0.0 in /  0 mm
23:03 25.5 °F /  -3.6 °C 5.1 °F /  -14.9 °C 1011.7 in /  34256.2 hPa SW 5.6 mph /  9 km/h 5.6 mph /  9 km/h 27 % 0.0 in /  0 mm
23:05 20.9 °F /  -6.2 °C 7.8 °F /  -13.4 °C 1011.7 in /  34256.2 hPa North 1.6 mph /  2.6 km/h 3.2 mph /  5.1 km/h 43 % 0.0 in /  0 mm
23:08 25.4 °F /  -3.7 °C 5.1 °F /  -14.9 °C 1011.7 in /  34256.2 hPa West 3.7 mph /  6 km/h 3.7 mph /  6 km/h 27 % 0.0 in /  0 mm
23:15 20.7 °F /  -6.3 °C 8.0 °F /  -13.3 °C 1011.7 in /  34256.2 hPa WSW 1.6 mph /  2.6 km/h 3.2 mph /  5.1 km/h 44 % 0.0 in /  0 mm
23:25 20.4 °F /  -6.4 °C 7.7 °F /  -13.5 °C 1011.7 in /  34256.2 hPa SW 1.6 mph /  2.6 km/h 3.2 mph /  5.1 km/h 44 % 0.0 in /  0 mm
23:35 20.2 °F /  -6.6 °C 7.9 °F /  -13.4 °C 1011.7 in /  34256.2 hPa Calm   3.2 mph /  5.1 km/h 45 % 0.0 in /  0 mm
23:45 20.2 °F /  -6.6 °C 7.9 °F /  -13.4 °C 1011.7 in /  34256.2 hPa SW 1.6 mph /  2.6 km/h 3.2 mph /  5.1 km/h 45 % 0.0 in /  0 mm
23:55 19.9 °F /  -6.7 °C 7.6 °F /  -13.6 °C 1011.7 in /  34256.2 hPa SW 3.2 mph /  5.1 km/h 3.2 mph /  5.1 km/h 45 % 0.0 in /  0 mm
23:59 25.0 °F /  -3.9 °C 5.2 °F /  -14.9 °C 1012.8 in /  34293.4 hPa Calm     28 % 0.0 in /  0 mm
Meteo Sesrovires
Elogis d' Weather Underground - 1.5 mb

Guio original per  Jim McMurry - jmcmurry@mwt.net Adaptat per a la plantilla per  Wim van der Kuil - Leuven-Template.eu

Trobareu la nostra informacio del temps tambe a:

Weather Underground

AWEKAS